KMEH

Meacham Airport

Meacham, Oregon, USA
METAR KMEH 200656Z AUTO 00000KT 10SM CLR M24/M27 A3003 RMK AO2 SLP250 T12441272
Observed Flight Rules
Feb-20 @ 06:56 UTC (36 minutes ago) Visual Flight Rules
Wind Visibility Clouds
Calm 10 miles
  • Clear skies
Temperatures Readings
Current -24°C / -11°F
Dewpoint -27°C / -17°F
Humidity 76%
Altimeter 30.03" Hg
Pressure 1025 hPa
Elevation 1136
METAR KMEH 200656Z AUTO 00000KT 10SM CLR M24/M27 A3003 RMK AO2 SLP250 T12441272
Observed Flight Rules
Feb-20 @ 06:56 UTC
(36 minutes ago)
VFR
Wind Visibility
Calm 10 miles
Clouds
  • Clear skies
Temperature Dewpoint
-24°C / -11°F -27°C / -17°F
Humidity Altimeter Pressure
76% 30.03" Hg 1025 hPa